Time;durP1;ratioP1;P1;durP2;ratioP2;P2;SDS_P1;SDS_P2;PMS_P1;PMS_P2;Temp;Humidity;BMP_temperature;BMP_pressure;BME280_temperature;BME280_humidity;BME280_pressure;Samples;Min_cycle;Max_cycle;Signal;HPM_P1;HPM_P2
2023/12/22 00:15:38;;;;;;;9.10;2.10;;;;;;;5.57;77.03;97234.42;123187;1286;5425278;-67
2023/12/22 00:19:42;;;;;;;11.00;2.10;;;;;;;5.49;76.90;97235.71;126239;1312;115056;-72
2023/12/22 00:27:45;;;;;;;7.40;1.90;;;;;;;5.25;76.59;97238.98;125799;1298;114960;-68
2023/12/22 00:31:47;;;;;;;7.60;2.60;;;;;;;5.15;76.36;97227.17;125341;1304;129732;-69
2023/12/22 00:48:28;;;;;;;7.00;2.20;;;;;;;4.73;75.60;97257.60;126177;1295;114974;-71
2023/12/22 00:52:27;;;;;;;;;;;;;;;;;;;;;
2023/12/22 00:56:42;;;;;;;;;;;;;;;;;;;;;
2023/12/22 01:00:47;;;;;;;8.00;2.50;;;;;;;4.66;75.41;97260.57;127824;1300;129007;-67
2023/12/22 01:04:49;;;;;;;11.20;1.80;;;;;;;4.71;75.76;97267.64;126850;1292;114834;-72
2023/12/22 01:08:50;;;;;;;7.30;1.70;;;;;;;4.77;75.97;97267.58;122056;1296;5544176;-67
2023/12/22 01:12:51;;;;;;;7.20;1.90;;;;;;;4.79;75.92;97263.55;125356;1302;115835;-73
2023/12/22 01:16:53;;;;;;;5.90;1.60;;;;;;;4.78;76.34;97281.44;124711;1326;114916;-67
2023/12/22 01:25:28;;;;;;;6.50;1.70;;;;;;;4.72;76.18;97276.41;125399;1303;637596;-72
2023/12/22 01:29:30;;;;;;;6.30;1.90;;;;;;;4.68;76.23;97281.81;127091;1305;130293;-67
2023/12/22 01:33:14;;;;;;;;;;;;;;;;;;;;;
2023/12/22 01:37:26;;;;;;;8.90;1.70;;;;;;;4.65;76.23;97289.80;122032;1317;5429590;-66
2023/12/22 01:41:27;;;;;;;7.00;1.60;;;;;;;4.59;75.83;97285.16;124618;1329;115054;-68
2023/12/22 01:49:46;;;;;;;8.80;1.80;;;;;;;4.44;75.46;97276.49;125753;1301;638723;-69
2023/12/22 02:01:52;;;;;;;6.50;1.80;;;;;;;4.08;75.16;97266.23;121902;1299;5370692;-71
2023/12/22 02:09:41;;;;;;;;;;;;;;;;;;;;;
2023/12/22 02:18:30;;;;;;;9.80;2.20;;;;;;;3.77;74.82;97261.15;125742;1311;639449;-70
2023/12/22 02:30:27;;;;;;;;;;;;;;;;;;;;;
2023/12/22 02:34:28;;;;;;;9.20;1.50;;;;;;;3.70;75.00;97284.84;127361;1289;114849;-68
2023/12/22 02:38:35;;;;;;;8.70;1.40;;;;;;;3.70;75.14;97273.36;127085;1289;114855;-66
2023/12/22 02:42:29;;;;;;;;;;;;;;;;;;;;;
2023/12/22 02:46:33;;;;;;;11.90;1.80;;;;;;;3.61;74.61;97287.23;125988;1298;129720;-69
2023/12/22 02:50:34;;;;;;;5.90;1.30;;;;;;;3.58;74.41;97293.95;125290;1308;114843;-68
2023/12/22 02:54:16;;;;;;;;;;;;;;;3.57;74.67;97304.94;124526;1327;115095;-73
2023/12/22 02:58:17;;;;;;;3.80;1.00;;;;;;;3.55;74.71;97308.75;124705;1326;114958;-70
2023/12/22 03:01:58;;;;;;;;;;;;;;;3.53;74.56;97311.59;124892;1321;115342;-68
2023/12/22 03:05:58;;;;;;;4.80;1.90;;;;;;;3.49;74.60;97310.04;125054;1317;130145;-69
2023/12/22 03:09:51;;;;;;;4.30;1.40;;;;;;;3.43;74.42;97309.95;124651;1310;114933;-70
2023/12/22 03:13:50;;;;;;;;;;;;;;;;;;;;;
2023/12/22 03:22:12;;;;;;;;;;;;;;;;;;;;;
2023/12/22 03:26:08;;;;;;;;;;;;;;;;;;;;;
2023/12/22 03:30:12;;;;;;;7.50;1.40;;;;;;;2.91;73.49;97338.31;127231;1285;114834;-65
2023/12/22 03:34:06;;;;;;;6.80;1.10;;;;;;;2.87;73.40;97341.92;121756;1298;5434448;-66
2023/12/22 03:38:08;;;;;;;5.70;1.00;;;;;;;2.86;73.26;97350.73;125342;1302;115016;-66
2023/12/22 03:46:44;;;;;;;4.40;1.00;;;;;;;2.93;73.45;97354.91;125378;1302;638623;-66
2023/12/22 03:50:48;;;;;;;7.50;1.20;;;;;;;2.94;73.69;97364.52;127755;1284;128916;-67
2023/12/22 03:59:21;;;;;;;;;;;;;;;;;;;;;
2023/12/22 04:12:04;;;;;;;4.60;1.30;;;;;;;3.10;74.52;97366.85;125501;1305;637871;-68
2023/12/22 04:16:06;;;;;;;2.30;0.90;;;;;;;3.09;74.84;97382.25;127277;1288;128548;-66
2023/12/22 04:24:10;;;;;;;;;;;;;;;;;;;;;
2023/12/22 04:32:47;;;;;;;4.90;1.60;;;;;;;3.09;76.48;97361.09;125608;1300;640388;-67
2023/12/22 04:40:52;;;;;;;4.10;1.30;;;;;;;3.03;76.63;97357.45;127541;1303;115351;-67
2023/12/22 04:44:55;;;;;;;4.90;1.20;;;;;;;2.98;76.27;97358.27;125457;1291;2560422;-68
2023/12/22 04:48:47;;;;;;;4.30;1.10;;;;;;;2.88;76.04;97349.55;126968;1296;115940;-70
2023/12/22 04:56:59;;;;;;;7.10;1.70;;;;;;;2.76;75.71;97339.30;126800;1295;128896;-67
2023/12/22 05:01:00;;;;;;;5.60;1.80;;;;;;;2.73;75.82;97339.29;125606;1304;114949;-67
2023/12/22 05:04:53;;;;;;;;;;;;;;;;;;;;;
2023/12/22 05:08:49;;;;;;;6.20;1.40;;;;;;;2.69;75.44;97337.95;123575;1318;114999;-71
2023/12/22 05:21:17;;;;;;;6.70;1.80;;;;;;;2.61;74.86;97355.73;128750;1278;126242;-71
2023/12/22 05:25:20;;;;;;;8.20;1.90;;;;;;;2.57;74.96;97352.13;127760;1301;115250;-65
2023/12/22 05:33:24;;;;;;;4.40;0.80;;;;;;;2.50;74.80;97361.02;126113;1313;114872;-67
2023/12/22 05:37:26;;;;;;;5.40;1.40;;;;;;;2.48;74.75;97361.19;126060;1301;114958;-66
2023/12/22 05:41:19;;;;;;;;;;;;;;;;;;;;;
2023/12/22 05:45:21;;;;;;;8.00;1.80;;;;;;;2.41;75.13;97362.65;124439;1310;129861;-66
2023/12/22 05:57:59;;;;;;;4.80;1.10;;;;;;;2.39;75.14;97359.08;127801;1292;128936;-68
2023/12/22 06:02:01;;;;;;;8.20;2.20;;;;;;;2.37;75.17;97365.17;127179;1287;115028;-66
2023/12/22 06:06:07;;;;;;;4.30;1.40;;;;;;;2.36;75.18;97364.20;122258;1299;5439256;-67
2023/12/22 06:14:07;;;;;;;;;;;;;;;;;;;;;
2023/12/22 06:22:42;;;;;;;4.80;1.30;;;;;;;2.33;75.24;97370.39;125624;1302;638822;-69
2023/12/22 06:26:47;;;;;;;;;;;;;;;;;;;;;
2023/12/22 06:30:52;;;;;;;6.10;1.40;;;;;;;2.27;75.81;97388.72;127517;1287;114933;-69
2023/12/22 06:34:43;;;;;;;4.90;1.20;;;;;;;2.26;75.68;97395.13;122289;1301;5392185;-71
2023/12/22 06:38:36;;;;;;;;;;;;;;;;;;;;;
2023/12/22 06:42:38;;;;;;;4.70;1.20;;;;;;;2.25;76.18;97395.55;124427;1311;115170;-72
2023/12/22 06:50:44;;;;;;;;;;;;;;;;;;;;;
2023/12/22 06:54:49;;;;;;;7.00;1.10;;;;;;;2.35;76.57;97381.52;127129;1292;128826;-67
2023/12/22 06:58:52;;;;;;;6.20;2.50;;;;;;;2.42;76.83;97381.45;127245;1305;114928;-66
2023/12/22 07:06:56;;;;;;;3.10;0.90;;;;;;;2.53;77.07;97382.14;124587;1312;114983;-65
2023/12/22 07:15:32;;;;;;;6.10;1.70;;;;;;;2.74;77.46;97386.27;125171;1304;638486;-62
2023/12/22 07:19:16;;;;;;;;;;;;;;;;;;;;;
2023/12/22 07:23:20;;;;;;;3.40;0.80;;;;;;;2.89;77.28;97410.15;127661;1279;114776;-65
2023/12/22 07:27:11;;;;;;;;;;;;;;;;;;;;;
2023/12/22 07:31:14;;;;;;;6.50;1.40;;;;;;;3.12;77.47;97419.29;125113;1325;115191;-64
2023/12/22 07:35:15;;;;;;;5.80;1.20;;;;;;;3.31;77.35;97420.49;124853;1305;114997;-65
2023/12/22 07:39:00;;;;;;;;;;;;;;;;;;;;;
2023/12/22 07:55:30;;;;;;;3.50;1.00;;;;;;;3.72;77.40;97414.55;127704;1284;128531;-66
2023/12/22 07:59:32;;;;;;;3.80;0.90;;;;;;;3.78;77.65;97408.65;126961;1281;115359;-67
2023/12/22 08:03:37;;;;;;;18.10;5.90;;;;;;;3.85;77.74;97394.11;122714;1290;5406207;-67
2023/12/22 08:11:39;;;;;;;4.30;1.40;;;;;;;3.88;77.13;97405.91;124804;1328;114986;-65
2023/12/22 08:20:14;;;;;;;7.30;1.80;;;;;;;3.99;76.84;97414.33;125514;1299;640059;-62
2023/12/22 08:32:07;;;;;;;;;;;;;;;;;;;;;
2023/12/22 08:36:07;;;;;;;;;;;;;;;;;;;;;
2023/12/22 08:39:31;;;;;;;7.00;1.20;;;;;;;4.17;75.69;97433.19;124137;1313;116385;-66
2023/12/22 08:43:12;;;;;;;;;;;;;;;4.34;75.75;97431.34;124159;1313;114911;-67
2023/12/22 09:03:58;;;;;;;7.30;1.60;;;;;;;4.29;74.39;97434.14;124296;1280;5453904;-67
2023/12/22 09:07:59;;;;;;;7.20;1.20;;;;;;;4.20;74.17;97437.20;126129;1314;114897;-66
2023/12/22 09:20:36;;;;;;;6.00;1.20;;;;;;;4.17;74.09;97437.80;128249;1289;129103;-65
2023/12/22 09:24:39;;;;;;;2.20;1.20;;;;;;;4.31;74.05;97439.10;126846;1298;116147;-66
2023/12/22 09:32:44;;;;;;;2.00;0.70;;;;;;;4.77;74.04;97446.30;124834;1310;115210;-67
2023/12/22 09:41:15;;;;;;;;;;;;;;;;;;;;;
2023/12/22 09:44:47;;;;;;;2.40;1.20;;;;;;;5.30;73.17;97438.56;127340;1303;129096;-68
2023/12/22 09:48:51;;;;;;;2.80;1.00;;;;;;;5.37;72.65;97431.14;127376;1283;114999;-66
2023/12/22 09:53:16;;;;;;;4.80;1.70;;;;;;;5.39;72.37;97437.77;125892;1300;115054;-67
2023/12/22 09:56:42;;;;;;;;;;;;;;;;;;;;;
2023/12/22 10:00:44;;;;;;;3.30;0.80;;;;;;;5.35;72.79;97440.31;124852;1307;115045;-67
2023/12/22 10:04:46;;;;;;;2.00;0.60;;;;;;;5.32;72.78;97442.11;124771;1322;114833;-68
2023/12/22 10:13:13;;;;;;;5.00;2.20;;;;;;;5.16;72.64;97433.54;125457;1299;638499;-68
2023/12/22 10:17:16;;;;;;;4.20;1.80;;;;;;;5.12;73.02;97425.52;127514;1298;128829;-68
2023/12/22 10:21:10;;;;;;;4.20;1.40;;;;;;;5.21;73.04;97422.59;125790;1299;114905;-68
2023/12/22 10:25:17;;;;;;;10.40;1.70;;;;;;;5.30;72.84;97426.87;121120;1318;5435537;-69
2023/12/22 10:29:19;;;;;;;7.00;1.20;;;;;;;5.38;72.22;97439.71;124781;1308;114955;-68
2023/12/22 10:37:44;;;;;;;4.90;1.60;;;;;;;5.40;71.35;97450.05;125853;1297;635914;-66
2023/12/22 10:41:46;;;;;;;5.60;1.10;;;;;;;5.40;70.96;97444.06;128203;1278;128151;-67
2023/12/22 10:45:50;;;;;;;4.20;1.20;;;;;;;5.47;70.92;97454.27;127543;1284;114966;-69
2023/12/22 10:49:52;;;;;;;4.60;1.70;;;;;;;5.54;70.50;97452.02;122638;1284;5416848;-68
2023/12/22 10:53:54;;;;;;;5.90;0.90;;;;;;;5.57;70.00;97450.34;125839;1309;115060;-68
2023/12/22 10:58:02;;;;;;;4.40;1.30;;;;;;;5.59;69.05;97456.23;125202;1308;115422;-68
2023/12/22 11:06:32;;;;;;;3.10;0.80;;;;;;;5.64;68.56;97470.58;125654;1298;638736;-66
2023/12/22 11:13:56;;;;;;;4.30;0.60;;;;;;;5.67;68.18;97480.06;127013;1303;115373;-67
2023/12/22 11:18:03;;;;;;;4.80;0.80;;;;;;;5.70;67.83;97477.23;127983;1278;114883;-68
2023/12/22 11:22:07;;;;;;;5.50;0.90;;;;;;;5.68;67.10;97466.23;122694;1293;114849;-68
2023/12/22 11:26:01;;;;;;;;;;;;;;;;;;;;;
2023/12/22 11:29:39;;;;;;;;;;;;;;;;;;;;;
2023/12/22 11:37:59;;;;;;;2.70;0.70;;;;;;;5.57;65.92;97471.25;125430;1303;638520;-68
2023/12/22 11:42:03;;;;;;;3.30;1.00;;;;;;;5.56;65.60;97476.85;128323;1273;127560;-66
2023/12/22 11:46:05;;;;;;;7.20;1.80;;;;;;;5.62;65.79;97480.97;127960;1281;114912;-64
2023/12/22 11:49:55;;;;;;;6.30;2.10;;;;;;;5.68;65.75;97473.11;122595;1293;5419113;-64
2023/12/22 11:54:02;;;;;;;;;;;;;;;5.69;65.55;97474.11;125596;1299;115009;-64
2023/12/22 11:58:10;;;;;;;5.30;1.30;;;;;;;5.70;66.04;97475.65;125445;1301;115016;-64
2023/12/22 12:01:15;;;;;;;5.20;1.00;;;;;;;5.74;65.90;97472.64;124595;1323;114994;-64
2023/12/22 12:04:25;;;;;;;3.30;0.80;;;;;;;5.78;65.56;97470.92;124737;1310;130191;-64
2023/12/22 12:08:27;;;;;;;3.10;1.40;;;;;;;5.80;65.26;97467.95;124596;1313;114968;-64
2023/12/22 12:12:31;;;;;;;;;;;;;;;;;;;;;
2023/12/22 12:20:23;;;;;;;;;;;;;;;;;;;;;
2023/12/22 12:24:15;;;;;;;4.70;1.20;;;;;;;5.91;65.10;97476.84;123367;1319;130154;-66
2023/12/22 12:28:11;;;;;;;;;;;;;;;;;;;;;
2023/12/22 12:32:16;;;;;;;5.40;1.60;;;;;;;5.91;64.55;97485.54;124484;1313;114924;-65
2023/12/22 12:43:55;;;;;;;;;;;;;;;;;;;;;
2023/12/22 12:47:51;;;;;;;3.60;0.90;;;;;;;5.86;62.55;97484.21;128936;1284;115373;-67
2023/12/22 12:51:06;;;;;;;;;;;;;;;;;;;;;
2023/12/22 12:54:59;;;;;;;;;;;;;;;;;;;;;
2023/12/22 12:59:03;;;;;;;3.80;0.80;;;;;;;5.80;61.67;97490.83;127859;1294;114857;-65
2023/12/22 13:02:29;;;;;;;;;;;;;;;;;;;;;
2023/12/22 13:06:21;;;;;;;2.50;0.70;;;;;;;5.71;61.15;97484.58;127157;1295;128888;-67
2023/12/22 13:10:06;;;;;;;;;;;;;;;;;;;;;
2023/12/22 13:13:44;;;;;;;3.40;0.90;;;;;;;5.61;61.68;97500.33;126598;1293;114935;-64
2023/12/22 13:17:10;;;;;;;5.00;1.30;;;;;;;5.58;61.40;97493.48;126545;1304;114802;-67
2023/12/22 13:21:14;;;;;;;5.20;1.00;;;;;;;5.52;60.92;97501.55;126471;1293;114808;-68
2023/12/22 13:25:12;;;;;;;;;;;;;;;;;;;;;
2023/12/22 13:29:15;;;;;;;4.10;1.00;;;;;;;5.43;60.91;97506.95;126130;1310;115007;-67
2023/12/22 13:33:06;;;;;;;;;;;;;;;;;;;;;
2023/12/22 13:36:49;;;;;;;7.70;1.60;;;;;;;5.31;60.65;97507.80;125327;1321;114853;-63
2023/12/22 13:40:39;;;;;;;4.20;0.80;;;;;;;5.28;60.44;97513.17;126136;1305;114897;-65
2023/12/22 13:43:44;;;;;;;5.90;1.80;;;;;;;5.25;60.48;97507.38;125760;1299;129781;-65
2023/12/22 13:47:50;;;;;;;;;;;;;;;;;;;;;
2023/12/22 13:51:39;;;;;;;4.60;1.50;;;;;;;5.19;59.96;97509.96;125287;1312;114935;-66
2023/12/22 13:55:00;;;;;;;;;;;;;;;;;;;;;
2023/12/22 13:58:20;;;;;;;4.10;2.30;;;;;;;4.97;60.00;97516.84;124718;1314;115377;-65
2023/12/22 14:02:03;;;;;;;5.80;1.70;;;;;;;4.88;59.85;97520.11;124592;1312;129713;-64
2023/12/22 14:05:39;;;;;;;;;;;;;;;;;;;;;
2023/12/22 14:09:32;;;;;;;;;;;;;;;;;;;;;
2023/12/22 14:12:51;;;;;;;;;;;;;;;4.67;60.36;97529.21;125622;1302;116766;-64
2023/12/22 14:16:21;;;;;;;10.00;1.30;;;;;;;4.62;60.61;97533.31;125339;1305;114875;-65
2023/12/22 14:19:37;;;;;;;7.00;2.10;;;;;;;4.56;60.78;97521.29;125463;1303;129987;-64
2023/12/22 14:22:49;;;;;;;5.60;2.20;;;;;;;4.53;60.73;97521.34;125876;1295;114954;-66
2023/12/22 14:25:52;;;;;;;9.30;2.20;;;;;;;4.50;60.67;97516.23;126316;1302;115038;-65
2023/12/22 14:29:00;;;;;;;4.10;2.10;;;;;;;4.46;60.67;97522.36;127496;1299;114928;-65
2023/12/22 14:32:12;;;;;;;6.60;2.30;;;;;;;4.42;60.68;97521.72;128277;1271;114863;-66
2023/12/22 14:35:45;;;;;;;;;;;;;;;;;;;;;
2023/12/22 14:38:57;;;;;;;7.70;3.10;;;;;;;4.35;60.51;97515.51;128032;1291;115029;-65
2023/12/22 14:42:03;;;;;;;;;;;;;;;4.30;60.44;97517.30;128720;1281;114947;-66
2023/12/22 14:45:06;;;;;;;10.20;3.20;;;;;;;4.22;60.59;97519.75;128693;1284;114935;-66
2023/12/22 14:48:08;;;;;;;8.20;4.20;;;;;;;4.18;60.49;97521.83;128572;1274;116370;-66
2023/12/22 14:51:34;;;;;;;5.90;2.80;;;;;;;4.14;60.71;97534.11;129332;1266;114850;-71
2023/12/22 14:55:02;;;;;;;6.30;2.20;;;;;;;4.09;60.71;97534.95;129726;1267;115276;-72
2023/12/22 15:15:11;;;;;;;8.60;3.70;;;;;;;3.59;61.34;97560.87;126468;1293;114846;-70
2023/12/22 15:19:12;;;;;;;7.30;3.20;;;;;;;3.53;61.51;97571.65;126168;1306;114897;-73
2023/12/22 15:23:14;;;;;;;5.20;2.20;;;;;;;3.49;61.50;97577.33;125615;1304;115028;-70
2023/12/22 15:31:56;;;;;;;17.40;6.00;;;;;;;3.52;61.44;97573.99;126818;1289;636398;-74
2023/12/22 15:35:54;;;;;;;6.10;1.70;;;;;;;3.52;61.55;97568.53;128792;1277;127904;-73
2023/12/22 15:39:56;;;;;;;9.60;3.20;;;;;;;3.51;61.26;97568.23;128096;1277;115330;-73
2023/12/22 15:43:59;;;;;;;7.50;3.10;;;;;;;3.47;61.29;97564.60;123075;1286;5443288;-74
2023/12/22 15:56:45;;;;;;;12.90;6.20;;;;;;;3.34;61.55;97588.71;126111;1297;638725;-73
2023/12/22 16:00:47;;;;;;;5.40;2.30;;;;;;;3.32;61.91;97598.88;127706;1296;129162;-71
2023/12/22 16:08:45;;;;;;;6.80;2.70;;;;;;;3.36;62.75;97605.19;122204;1299;5414100;-70
2023/12/22 16:12:45;;;;;;;7.50;2.40;;;;;;;3.37;63.21;97606.41;124997;1321;114801;-71
2023/12/22 16:20:42;;;;;;;10.30;2.10;;;;;;;3.37;63.79;97606.52;124235;1316;115089;-73
2023/12/22 16:29:16;;;;;;;6.10;1.60;;;;;;;3.38;64.02;97604.73;125722;1302;638671;-69
2023/12/22 16:33:24;;;;;;;6.90;2.20;;;;;;;3.35;63.99;97619.04;127931;1286;128815;-72
2023/12/22 16:41:29;;;;;;;11.40;2.60;;;;;;;3.25;63.91;97628.45;122703;1296;5431081;-73
2023/12/22 16:45:30;;;;;;;14.80;3.50;;;;;;;3.20;63.89;97629.14;126192;1308;115021;-75
2023/12/22 16:49:31;;;;;;;13.10;3.40;;;;;;;3.13;64.04;97632.02;125904;1303;115835;-73
2023/12/22 16:58:06;;;;;;;8.40;1.60;;;;;;;2.97;63.54;97629.32;125798;1299;637703;-73
2023/12/22 17:10:44;;;;;;;8.90;1.80;;;;;;;2.69;63.27;97629.09;127827;1284;129041;-74
2023/12/22 17:14:51;;;;;;;6.20;2.60;;;;;;;2.59;63.28;97632.13;126285;1299;114974;-70
2023/12/22 17:18:53;;;;;;;6.20;1.60;;;;;;;2.50;63.41;97641.27;121885;1304;5425305;-73
2023/12/22 17:22:53;;;;;;;13.00;5.00;;;;;;;2.40;63.35;97643.45;125162;1310;114976;-73
2023/12/22 17:31:29;;;;;;;8.50;3.00;;;;;;;2.26;63.54;97648.66;125812;1305;639297;-72
2023/12/22 17:35:31;;;;;;;11.40;3.90;;;;;;;2.18;64.07;97649.89;128785;1273;127823;-71
2023/12/22 17:39:34;;;;;;;9.40;3.30;;;;;;;2.12;65.02;97648.79;127553;1289;115290;-74
2023/12/22 17:43:33;;;;;;;6.40;2.10;;;;;;;2.08;65.63;97662.23;122350;1296;5419155;-73
2023/12/22 18:00:05;;;;;;;9.10;2.50;;;;;;;2.38;67.54;97673.38;128230;1298;128684;-69
2023/12/22 18:08:10;;;;;;;6.10;2.00;;;;;;;2.50;67.39;97663.52;123124;1292;5419664;-69
2023/12/22 18:12:11;;;;;;;6.00;2.00;;;;;;;2.48;67.38;97669.96;125588;1301;114951;-68
2023/12/22 18:16:07;;;;;;;5.40;2.00;;;;;;;2.42;66.96;97675.78;124850;1313;115017;-72
2023/12/22 18:19:51;;;;;;;8.20;1.70;;;;;;;2.34;67.07;97673.09;124110;1316;115020;-68
2023/12/22 18:28:26;;;;;;;8.80;2.70;;;;;;;2.20;66.75;97670.71;125798;1297;639365;-73
2023/12/22 18:32:30;;;;;;;6.10;2.20;;;;;;;2.08;66.90;97681.06;127713;1286;129716;-69
2023/12/22 18:40:34;;;;;;;11.40;2.30;;;;;;;1.93;66.75;97696.33;122143;1306;5408706;-69
2023/12/22 18:44:36;;;;;;;8.60;5.00;;;;;;;1.87;66.71;97699.00;125096;1305;114880;-71
2023/12/22 18:53:12;;;;;;;;;;;;;;;;;;;;;
2023/12/22 18:57:03;;;;;;;8.80;3.50;;;;;;;1.99;67.11;97686.54;127525;1289;127148;-72
2023/12/22 19:01:06;;;;;;;6.30;1.90;;;;;;;2.08;67.07;97697.08;127064;1293;114892;-73
2023/12/22 19:13:42;;;;;;;7.20;2.20;;;;;;;2.34;66.99;97678.89;125411;1307;639608;-68
2023/12/22 19:17:44;;;;;;;5.20;1.70;;;;;;;2.36;66.90;97673.32;127564;1303;128105;-68
2023/12/22 19:21:46;;;;;;;5.50;2.50;;;;;;;2.39;67.11;97688.62;126759;1304;114770;-73
2023/12/22 19:25:44;;;;;;;4.00;1.40;;;;;;;2.40;67.12;97678.16;123070;1290;5420839;-78
2023/12/22 19:29:46;;;;;;;4.90;2.30;;;;;;;2.39;66.99;97677.00;127033;1289;114885;-67
2023/12/22 19:33:45;;;;;;;;;;;;;;;;;;;;;
2023/12/22 19:38:02;;;;;;;6.20;2.30;;;;;;;2.33;67.05;97685.29;125928;1295;114817;-70
2023/12/22 19:42:03;;;;;;;5.90;1.90;;;;;;;2.30;67.21;97702.71;125636;1317;128835;-75
2023/12/22 19:45:57;;;;;;;4.20;1.40;;;;;;;2.27;67.39;97709.36;124903;1313;115026;-69
2023/12/22 19:58:04;;;;;;;6.00;1.70;;;;;;;2.21;67.56;97704.45;124370;1316;114987;-68
2023/12/22 20:01:40;;;;;;;;;;;;;;;;;;;;;
2023/12/22 20:05:36;;;;;;;;;;;;;;;;;;;;;
2023/12/22 20:09:41;;;;;;;6.10;2.40;;;;;;;2.37;68.27;97712.88;126012;1296;639130;-73
2023/12/22 20:13:45;;;;;;;6.50;1.80;;;;;;;2.40;68.33;97716.23;128906;1283;128888;-71
2023/12/22 20:17:32;;;;;;;;;;;;;;;;;;;;;
2023/12/22 20:21:46;;;;;;;5.20;1.50;;;;;;;2.44;68.42;97724.98;126664;1288;116488;-68
2023/12/22 20:25:45;;;;;;;4.80;1.00;;;;;;;2.39;68.46;97727.58;124350;1311;114939;-71
2023/12/22 20:29:28;;;;;;;4.70;1.80;;;;;;;2.34;68.43;97721.83;125020;1310;115276;-70
2023/12/22 20:37:50;;;;;;;;;;;;;;;;;;;;;
2023/12/22 20:41:46;;;;;;;4.90;1.70;;;;;;;2.33;68.72;97752.04;128007;1283;127935;-66
2023/12/22 20:45:51;;;;;;;5.40;2.10;;;;;;;2.33;68.59;97758.03;128002;1298;114801;-70
2023/12/22 20:49:24;;;;;;;;;;;;;;;;;;;;;
2023/12/22 20:52:59;;;;;;;5.30;1.90;;;;;;;2.32;68.79;97761.94;128052;1294;114961;-67
2023/12/22 20:56:51;;;;;;;;;;;;;;;;;;;;;
2023/12/22 21:00:48;;;;;;;4.40;1.10;;;;;;;2.28;68.61;97768.48;128503;1292;128615;-68
2023/12/22 21:04:16;;;;;;;3.00;0.90;;;;;;;2.28;68.68;97771.48;128074;1277;114893;-68
2023/12/22 21:08:01;;;;;;;9.60;2.10;;;;;;;2.31;68.76;97762.55;127844;1285;115059;-69
2023/12/22 21:11:40;;;;;;;;;;;;;;;;;;;;;
2023/12/22 21:14:52;;;;;;;1.00;0.40;;;;;;;2.38;68.67;97764.61;127613;1286;115315;-68
2023/12/22 21:18:16;;;;;;;;;;;;;;;;;;;;;
2023/12/22 21:22:06;;;;;;;3.90;1.50;;;;;;;2.45;68.40;97755.95;128177;1277;114838;-70
2023/12/22 21:26:09;;;;;;;7.50;1.50;;;;;;;2.46;68.06;97735.09;128357;1280;114957;-69
2023/12/22 21:29:39;;;;;;;5.10;1.80;;;;;;;2.47;68.04;97725.70;127939;1283;114858;-69
2023/12/22 21:33:16;;;;;;;4.70;1.50;;;;;;;2.47;67.87;97718.64;128281;1298;114798;-72
2023/12/22 21:36:51;;;;;;;;;;;;;;;;;;;;;
2023/12/22 21:40:48;;;;;;;4.30;2.30;;;;;;;2.48;67.96;97718.04;128489;1279;114940;-70
2023/12/22 21:44:53;;;;;;;3.90;1.30;;;;;;;2.48;68.00;97737.27;128126;1277;114942;-68
2023/12/22 21:48:59;;;;;;;;;;;;;;;;;;;;;
2023/12/22 21:52:47;;;;;;;;;;;;;;;;;;;;;
2023/12/22 21:56:36;;;;;;;2.70;1.00;;;;;;;2.47;67.60;97768.14;127895;1280;128023;-68
2023/12/22 22:00:05;;;;;;;3.90;1.70;;;;;;;2.46;67.60;97771.00;127864;1302;114974;-69
2023/12/22 22:03:39;;;;;;;;;;;;;;;;;;;;;
2023/12/22 22:07:19;;;;;;;3.10;1.10;;;;;;;2.47;67.62;97783.15;128160;1276;114974;-68
2023/12/22 22:10:41;;;;;;;4.60;1.40;;;;;;;2.46;67.43;97774.90;128369;1276;114875;-68
2023/12/22 22:14:50;;;;;;;5.70;1.40;;;;;;;2.47;67.47;97777.33;128148;1279;128812;-68
2023/12/22 22:18:02;;;;;;;5.20;1.20;;;;;;;2.45;67.46;97765.25;127710;1303;114744;-69
2023/12/22 22:21:47;;;;;;;5.10;1.40;;;;;;;2.43;67.20;97767.64;127908;1285;114959;-68
2023/12/22 22:25:18;;;;;;;4.90;1.20;;;;;;;2.42;67.47;97758.37;127892;1282;114834;-71
2023/12/22 22:28:28;;;;;;;3.00;1.30;;;;;;;2.39;67.32;97770.69;127817;1281;114983;-71
2023/12/22 22:32:10;;;;;;;5.80;1.30;;;;;;;2.37;67.09;97782.64;127794;1280;129704;-70
2023/12/22 22:35:17;;;;;;;7.10;1.60;;;;;;;2.34;66.73;97784.92;128181;1280;114962;-71
2023/12/22 22:38:41;;;;;;;2.20;0.70;;;;;;;2.32;66.96;97789.08;128225;1283;115166;-69
2023/12/22 22:41:48;;;;;;;4.40;1.10;;;;;;;2.30;67.04;97788.52;128108;1282;114922;-70
2023/12/22 22:45:03;;;;;;;4.00;1.30;;;;;;;2.28;66.74;97788.95;128248;1282;115018;-71
2023/12/22 22:48:09;;;;;;;3.40;1.10;;;;;;;2.25;66.48;97785.59;128063;1282;128072;-71
2023/12/22 22:51:57;;;;;;;;;;;;;;;;;;;;;
2023/12/22 22:55:35;;;;;;;;;;;;;;;;;;;;;
2023/12/22 22:59:21;;;;;;;4.90;1.10;;;;;;;2.15;66.29;97793.35;128528;1277;114897;-70
2023/12/22 23:02:26;;;;;;;3.50;1.20;;;;;;;2.12;66.30;97794.77;128203;1286;115469;-70
2023/12/22 23:06:31;;;;;;;4.30;0.80;;;;;;;2.10;66.41;97803.45;128714;1277;128872;-70
2023/12/22 23:10:12;;;;;;;2.30;0.90;;;;;;;2.09;66.37;97799.99;128708;1276;114833;-69
2023/12/22 23:13:34;;;;;;;4.60;1.00;;;;;;;2.09;66.50;97799.84;128416;1279;115327;-70
2023/12/22 23:17:02;;;;;;;4.20;1.00;;;;;;;2.09;66.38;97795.48;128327;1273;114981;-70
2023/12/22 23:20:10;;;;;;;5.60;1.40;;;;;;;2.09;66.43;97798.11;128329;1280;114795;-70
2023/12/22 23:23:46;;;;;;;;;;;;;;;;;;;;;
2023/12/22 23:27:13;;;;;;;4.10;1.00;;;;;;;2.06;66.31;97795.46;128214;1276;114938;-69
2023/12/22 23:30:40;;;;;;;;;;;;;;;;;;;;;
2023/12/22 23:34:17;;;;;;;4.70;1.30;;;;;;;2.02;66.58;97805.52;128086;1300;114974;-70
2023/12/22 23:38:04;;;;;;;3.30;1.30;;;;;;;2.02;66.57;97808.70;127990;1281;115082;-69
2023/12/22 23:41:16;;;;;;;4.40;1.10;;;;;;;2.02;67.19;97811.85;127583;1285;127955;-69
2023/12/22 23:44:33;;;;;;;;;;;;;;;;;;;;;
2023/12/22 23:47:39;;;;;;;6.50;1.60;;;;;;;2.06;67.60;97809.90;127613;1279;114949;-70
2023/12/22 23:50:47;;;;;;;7.90;2.60;;;;;;;2.09;67.51;97808.80;127992;1298;114895;-69
2023/12/22 23:54:10;;;;;;;4.90;1.60;;;;;;;2.13;68.00;97811.79;128171;1298;114913;-70
2023/12/22 23:57:30;;;;;;;6.30;1.80;;;;;;;2.16;68.12;97810.71;128267;1276;129066;-69
